sensor_id;sensor_type;location;lat;lon;timestamp;pressure;altitude;pressure_sealevel;temperature;humidity
72061;BME280;59925;52.136;5.420;2023-06-22T00:00:10;102100.47;;;18.06;76.13
72061;BME280;59925;52.136;5.420;2023-06-22T00:02:38;102081.00;;;18.04;76.37
72061;BME280;59925;52.136;5.420;2023-06-22T00:05:05;102089.97;;;18.00;76.47
72061;BME280;59925;52.136;5.420;2023-06-22T00:07:32;102081.34;;;17.98;76.43
72061;BME280;59925;52.136;5.420;2023-06-22T00:09:58;102095.69;;;17.98;76.71
72061;BME280;59925;52.136;5.420;2023-06-22T00:12:24;102099.25;;;17.99;76.54
72061;BME280;59925;52.136;5.420;2023-06-22T00:14:51;102102.22;;;17.97;76.53
72061;BME280;59925;52.136;5.420;2023-06-22T00:17:17;102088.09;;;17.95;76.80
72061;BME280;59925;52.136;5.420;2023-06-22T00:19:47;102085.75;;;17.88;77.16
72061;BME280;59925;52.136;5.420;2023-06-22T00:22:13;102082.28;;;17.83;77.56
72061;BME280;59925;52.136;5.420;2023-06-22T00:24:40;102097.81;;;17.77;77.87
72061;BME280;59925;52.136;5.420;2023-06-22T00:27:06;102091.34;;;17.73;78.02
72061;BME280;59925;52.136;5.420;2023-06-22T00:29:33;102087.28;;;17.70;78.27
72061;BME280;59925;52.136;5.420;2023-06-22T00:31:59;102087.06;;;17.67;78.48
72061;BME280;59925;52.136;5.420;2023-06-22T00:34:25;102081.13;;;17.65;78.81
72061;BME280;59925;52.136;5.420;2023-06-22T00:36:52;102078.41;;;17.65;78.40
72061;BME280;59925;52.136;5.420;2023-06-22T00:39:18;102071.59;;;17.67;78.00
72061;BME280;59925;52.136;5.420;2023-06-22T00:41:45;102077.28;;;17.71;78.07
72061;BME280;59925;52.136;5.420;2023-06-22T00:44:12;102067.50;;;17.70;78.00
72061;BME280;59925;52.136;5.420;2023-06-22T00:46:38;102065.66;;;17.65;78.21
72061;BME280;59925;52.136;5.420;2023-06-22T00:49:05;102067.34;;;17.61;78.27
72061;BME280;59925;52.136;5.420;2023-06-22T00:51:31;102066.50;;;17.60;78.45
72061;BME280;59925;52.136;5.420;2023-06-22T00:53:58;102061.44;;;17.54;78.48
72061;BME280;59925;52.136;5.420;2023-06-22T00:56:25;102064.72;;;17.51;78.53
72061;BME280;59925;52.136;5.420;2023-06-22T00:58:53;102070.50;;;17.44;78.91
72061;BME280;59925;52.136;5.420;2023-06-22T01:01:20;102070.53;;;17.39;79.12
72061;BME280;59925;52.136;5.420;2023-06-22T01:03:50;102075.97;;;17.34;79.33
72061;BME280;59925;52.136;5.420;2023-06-22T01:06:34;102064.16;;;17.24;79.60
72061;BME280;59925;52.136;5.420;2023-06-22T01:09:31;102061.50;;;17.19;79.48
72061;BME280;59925;52.136;5.420;2023-06-22T01:12:02;102065.31;;;17.18;79.41
72061;BME280;59925;52.136;5.420;2023-06-22T01:14:56;102071.81;;;17.17;79.45
72061;BME280;59925;52.136;5.420;2023-06-22T01:17:24;102073.44;;;17.18;78.66
72061;BME280;59925;52.136;5.420;2023-06-22T01:19:54;102076.69;;;17.20;77.84
72061;BME280;59925;52.136;5.420;2023-06-22T01:22:25;102079.09;;;17.22;78.08
72061;BME280;59925;52.136;5.420;2023-06-22T01:30:31;102058.31;;;17.12;78.76
72061;BME280;59925;52.136;5.420;2023-06-22T01:33:01;102066.19;;;17.08;78.71
72061;BME280;59925;52.136;5.420;2023-06-22T01:35:30;102062.66;;;17.08;78.03
72061;BME280;59925;52.136;5.420;2023-06-22T01:37:57;102059.38;;;17.11;78.68
72061;BME280;59925;52.136;5.420;2023-06-22T01:40:24;102060.47;;;17.10;78.16
72061;BME280;59925;52.136;5.420;2023-06-22T01:42:53;102058.63;;;17.05;78.29
72061;BME280;59925;52.136;5.420;2023-06-22T01:45:20;102057.06;;;16.99;78.38
72061;BME280;59925;52.136;5.420;2023-06-22T01:47:48;102070.31;;;17.00;77.78
72061;BME280;59925;52.136;5.420;2023-06-22T01:50:15;102060.88;;;16.98;77.68
72061;BME280;59925;52.136;5.420;2023-06-22T01:52:42;102061.13;;;16.96;78.39
72061;BME280;59925;52.136;5.420;2023-06-22T01:55:08;102053.06;;;16.86;79.06
72061;BME280;59925;52.136;5.420;2023-06-22T01:57:35;102058.56;;;16.76;79.57
72061;BME280;59925;52.136;5.420;2023-06-22T02:00:18;102049.91;;;16.74;79.61
72061;BME280;59925;52.136;5.420;2023-06-22T02:03:10;102055.34;;;16.68;79.75
72061;BME280;59925;52.136;5.420;2023-06-22T02:05:40;102051.06;;;16.62;80.07
72061;BME280;59925;52.136;5.420;2023-06-22T02:08:10;102047.59;;;16.57;80.49
72061;BME280;59925;52.136;5.420;2023-06-22T02:10:38;102048.97;;;16.54;80.70
72061;BME280;59925;52.136;5.420;2023-06-22T02:13:09;102046.56;;;16.47;81.04
72061;BME280;59925;52.136;5.420;2023-06-22T02:15:36;102045.75;;;16.42;81.26
72061;BME280;59925;52.136;5.420;2023-06-22T02:18:03;102042.00;;;16.37;81.51
72061;BME280;59925;52.136;5.420;2023-06-22T02:20:30;102042.81;;;16.38;80.60
72061;BME280;59925;52.136;5.420;2023-06-22T02:22:57;102048.75;;;16.40;80.85
72061;BME280;59925;52.136;5.420;2023-06-22T02:25:24;102043.06;;;16.42;80.73
72061;BME280;59925;52.136;5.420;2023-06-22T02:27:50;102049.56;;;16.41;80.62
72061;BME280;59925;52.136;5.420;2023-06-22T02:30:17;102033.91;;;16.37;81.07
72061;BME280;59925;52.136;5.420;2023-06-22T02:32:43;102039.31;;;16.32;81.36
72061;BME280;59925;52.136;5.420;2023-06-22T02:35:10;102043.94;;;16.32;80.82
72061;BME280;59925;52.136;5.420;2023-06-22T02:37:37;102048.25;;;16.33;80.60
72061;BME280;59925;52.136;5.420;2023-06-22T02:40:10;102044.47;;;16.34;80.10
72061;BME280;59925;52.136;5.420;2023-06-22T02:42:37;102044.72;;;16.32;80.58
72061;BME280;59925;52.136;5.420;2023-06-22T02:45:04;102046.38;;;16.28;81.12
72061;BME280;59925;52.136;5.420;2023-06-22T02:47:31;102039.91;;;16.24;81.71
72061;BME280;59925;52.136;5.420;2023-06-22T02:49:58;102033.97;;;16.17;81.90
72061;BME280;59925;52.136;5.420;2023-06-22T02:52:25;102035.38;;;16.09;82.09
72061;BME280;59925;52.136;5.420;2023-06-22T02:54:51;102031.88;;;16.03;82.36
72061;BME280;59925;52.136;5.420;2023-06-22T02:57:18;102033.53;;;15.99;82.15
72061;BME280;59925;52.136;5.420;2023-06-22T02:59:44;102035.41;;;15.99;81.78
72061;BME280;59925;52.136;5.420;2023-06-22T03:02:11;102036.75;;;16.01;81.27
72061;BME280;59925;52.136;5.420;2023-06-22T03:04:38;102036.50;;;16.03;81.71
72061;BME280;59925;52.136;5.420;2023-06-22T03:07:05;102033.00;;;15.97;82.16
72061;BME280;59925;52.136;5.420;2023-06-22T03:09:32;102033.56;;;15.94;82.43
72061;BME280;59925;52.136;5.420;2023-06-22T03:11:59;102041.66;;;15.89;82.98
72061;BME280;59925;52.136;5.420;2023-06-22T03:14:26;102040.59;;;15.90;82.63
72061;BME280;59925;52.136;5.420;2023-06-22T03:16:52;102046.53;;;15.92;82.64
72061;BME280;59925;52.136;5.420;2023-06-22T03:19:19;102041.13;;;15.92;82.60
72061;BME280;59925;52.136;5.420;2023-06-22T03:21:50;102037.06;;;15.94;82.41
72061;BME280;59925;52.136;5.420;2023-06-22T03:24:17;102043.28;;;15.95;82.10
72061;BME280;59925;52.136;5.420;2023-06-22T03:26:43;102041.13;;;15.97;81.48
72061;BME280;59925;52.136;5.420;2023-06-22T03:29:12;102042.19;;;15.96;80.89
72061;BME280;59925;52.136;5.420;2023-06-22T03:31:39;102027.84;;;15.96;80.93
72061;BME280;59925;52.136;5.420;2023-06-22T03:34:05;102022.72;;;15.94;81.48
72061;BME280;59925;52.136;5.420;2023-06-22T03:36:32;102025.72;;;15.92;81.88
72061;BME280;59925;52.136;5.420;2023-06-22T03:38:58;102024.09;;;15.91;82.05
72061;BME280;59925;52.136;5.420;2023-06-22T03:41:25;102011.66;;;15.90;82.19
72061;BME280;59925;52.136;5.420;2023-06-22T03:43:52;102016.25;;;15.90;82.03
72061;BME280;59925;52.136;5.420;2023-06-22T03:46:18;102019.50;;;15.92;81.95
72061;BME280;59925;52.136;5.420;2023-06-22T03:48:46;102015.69;;;15.93;81.84
72061;BME280;59925;52.136;5.420;2023-06-22T03:51:13;102021.94;;;15.93;81.46
72061;BME280;59925;52.136;5.420;2023-06-22T03:53:39;102015.94;;;15.97;81.59
72061;BME280;59925;52.136;5.420;2023-06-22T03:56:06;102016.50;;;15.99;81.81
72061;BME280;59925;52.136;5.420;2023-06-22T03:58:32;102010.81;;;16.00;82.08
72061;BME280;59925;52.136;5.420;2023-06-22T04:01:00;102013.00;;;15.98;82.17
72061;BME280;59925;52.136;5.420;2023-06-22T04:03:26;102013.25;;;15.97;82.79
72061;BME280;59925;52.136;5.420;2023-06-22T04:05:53;102012.44;;;15.96;82.87
72061;BME280;59925;52.136;5.420;2023-06-22T04:08:20;102013.00;;;15.98;82.84
72061;BME280;59925;52.136;5.420;2023-06-22T04:10:47;102011.31;;;16.02;82.69
72061;BME280;59925;52.136;5.420;2023-06-22T04:13:13;102004.84;;;16.03;82.77
72061;BME280;59925;52.136;5.420;2023-06-22T04:15:40;102001.34;;;16.03;83.39
72061;BME280;59925;52.136;5.420;2023-06-22T04:18:06;102001.03;;;16.04;83.84
72061;BME280;59925;52.136;5.420;2023-06-22T04:20:33;102004.81;;;16.08;84.13
72061;BME280;59925;52.136;5.420;2023-06-22T04:23:00;102001.03;;;16.09;83.98
72061;BME280;59925;52.136;5.420;2023-06-22T04:25:27;102002.59;;;16.16;83.57
72061;BME280;59925;52.136;5.420;2023-06-22T04:27:53;101999.88;;;16.21;83.38
72061;BME280;59925;52.136;5.420;2023-06-22T04:30:20;101993.09;;;16.23;83.31
72061;BME280;59925;52.136;5.420;2023-06-22T04:32:46;102003.63;;;16.30;83.19
72061;BME280;59925;52.136;5.420;2023-06-22T04:35:22;102002.75;;;16.35;82.88
72061;BME280;59925;52.136;5.420;2023-06-22T04:37:49;102003.84;;;16.39;82.41
72061;BME280;59925;52.136;5.420;2023-06-22T04:40:16;101992.97;;;16.44;82.60
72061;BME280;59925;52.136;5.420;2023-06-22T04:42:42;101999.72;;;16.47;82.87
72061;BME280;59925;52.136;5.420;2023-06-22T04:45:19;101992.66;;;16.51;83.13
72061;BME280;59925;52.136;5.420;2023-06-22T04:47:45;102003.19;;;16.58;83.67
72061;BME280;59925;52.136;5.420;2023-06-22T04:50:12;102003.41;;;16.61;83.99
72061;BME280;59925;52.136;5.420;2023-06-22T04:52:39;102003.09;;;16.68;83.48
72061;BME280;59925;52.136;5.420;2023-06-22T04:55:06;102006.53;;;16.79;83.72
72061;BME280;59925;52.136;5.420;2023-06-22T04:57:33;102015.16;;;16.86;83.36
72061;BME280;59925;52.136;5.420;2023-06-22T05:00:00;102007.78;;;16.97;83.29
72061;BME280;59925;52.136;5.420;2023-06-22T05:02:53;102018.00;;;17.05;83.15
72061;BME280;59925;52.136;5.420;2023-06-22T05:05:36;102014.69;;;17.13;83.11
72061;BME280;59925;52.136;5.420;2023-06-22T05:08:03;102010.53;;;17.21;82.90
72061;BME280;59925;52.136;5.420;2023-06-22T05:10:33;102012.63;;;17.29;83.16
72061;BME280;59925;52.136;5.420;2023-06-22T05:13:00;102016.19;;;17.49;83.10
72061;BME280;59925;52.136;5.420;2023-06-22T05:15:26;102010.84;;;17.68;82.50
72061;BME280;59925;52.136;5.420;2023-06-22T05:17:56;102006.66;;;18.25;81.54
72061;BME280;59925;52.136;5.420;2023-06-22T05:20:24;102004.13;;;18.47;79.81
72061;BME280;59925;52.136;5.420;2023-06-22T05:22:51;102011.41;;;18.33;79.89
72061;BME280;59925;52.136;5.420;2023-06-22T05:25:17;102015.06;;;18.23;80.17
72061;BME280;59925;52.136;5.420;2023-06-22T05:27:44;102016.69;;;18.24;80.55
72061;BME280;59925;52.136;5.420;2023-06-22T05:30:11;102007.66;;;18.29;80.65
72061;BME280;59925;52.136;5.420;2023-06-22T05:32:38;102010.09;;;18.30;81.10
72061;BME280;59925;52.136;5.420;2023-06-22T05:35:04;102011.22;;;18.62;81.24
72061;BME280;59925;52.136;5.420;2023-06-22T05:37:31;102015.91;;;18.95;80.22
72061;BME280;59925;52.136;5.420;2023-06-22T05:39:58;102014.72;;;19.15;79.66
72061;BME280;59925;52.136;5.420;2023-06-22T05:42:24;102010.63;;;19.45;79.49
72061;BME280;59925;52.136;5.420;2023-06-22T05:44:52;102010.75;;;19.68;78.62
72061;BME280;59925;52.136;5.420;2023-06-22T05:47:19;102020.72;;;19.73;77.81
72061;BME280;59925;52.136;5.420;2023-06-22T05:49:46;102017.00;;;19.83;77.39
72061;BME280;59925;52.136;5.420;2023-06-22T05:52:13;102016.22;;;19.96;77.20
72061;BME280;59925;52.136;5.420;2023-06-22T05:54:39;102012.75;;;20.04;76.97
72061;BME280;59925;52.136;5.420;2023-06-22T05:57:08;102016.16;;;20.10;77.16
72061;BME280;59925;52.136;5.420;2023-06-22T05:59:34;102020.09;;;20.55;77.26
72061;BME280;59925;52.136;5.420;2023-06-22T06:02:01;102022.81;;;21.63;75.98
72061;BME280;59925;52.136;5.420;2023-06-22T06:04:27;102020.72;;;23.09;71.52
72061;BME280;59925;52.136;5.420;2023-06-22T06:06:54;102017.59;;;24.18;67.94
72061;BME280;59925;52.136;5.420;2023-06-22T06:09:21;102017.03;;;25.01;64.47
72061;BME280;59925;52.136;5.420;2023-06-22T06:11:47;102017.25;;;25.21;62.05
72061;BME280;59925;52.136;5.420;2023-06-22T06:14:14;102008.25;;;25.58;60.75
72061;BME280;59925;52.136;5.420;2023-06-22T06:16:40;102004.16;;;25.64;60.79
72061;BME280;59925;52.136;5.420;2023-06-22T06:19:07;102008.47;;;25.90;59.88
72061;BME280;59925;52.136;5.420;2023-06-22T06:21:33;102004.84;;;26.14;57.52
72061;BME280;59925;52.136;5.420;2023-06-22T06:24:00;102000.38;;;26.09;58.90
72061;BME280;59925;52.136;5.420;2023-06-22T06:26:26;102002.63;;;26.32;57.37
72061;BME280;59925;52.136;5.420;2023-06-22T06:28:56;102001.31;;;26.13;57.48
72061;BME280;59925;52.136;5.420;2023-06-22T06:31:23;101999.22;;;26.23;57.31
72061;BME280;59925;52.136;5.420;2023-06-22T06:33:50;101995.84;;;26.01;57.11
72061;BME280;59925;52.136;5.420;2023-06-22T06:36:17;101993.56;;;26.31;57.13
72061;BME280;59925;52.136;5.420;2023-06-22T06:38:43;101991.75;;;26.52;56.86
72061;BME280;59925;52.136;5.420;2023-06-22T06:41:10;101991.00;;;26.67;57.61
72061;BME280;59925;52.136;5.420;2023-06-22T06:43:36;101987.66;;;26.90;55.19
72061;BME280;59925;52.136;5.420;2023-06-22T06:46:03;101984.06;;;26.86;54.91
72061;BME280;59925;52.136;5.420;2023-06-22T06:48:30;101981.19;;;27.14;54.79
72061;BME280;59925;52.136;5.420;2023-06-22T06:50:56;101973.09;;;27.37;54.24
72061;BME280;59925;52.136;5.420;2023-06-22T06:53:23;101972.81;;;27.43;54.08
72061;BME280;59925;52.136;5.420;2023-06-22T06:55:49;101977.44;;;27.22;53.99
72061;BME280;59925;52.136;5.420;2023-06-22T06:58:16;101974.16;;;27.17;53.52
72061;BME280;59925;52.136;5.420;2023-06-22T07:00:43;101980.31;;;27.10;53.76
72061;BME280;59925;52.136;5.420;2023-06-22T07:03:10;101974.63;;;27.03;55.35
72061;BME280;59925;52.136;5.420;2023-06-22T07:05:37;101971.97;;;27.06;54.21
72061;BME280;59925;52.136;5.420;2023-06-22T07:08:03;101974.63;;;26.87;54.35
72061;BME280;59925;52.136;5.420;2023-06-22T07:10:30;101973.50;;;26.59;55.62
72061;BME280;59925;52.136;5.420;2023-06-22T07:12:57;101979.25;;;26.54;55.36
72061;BME280;59925;52.136;5.420;2023-06-22T07:15:24;101964.09;;;26.44;55.48
72061;BME280;59925;52.136;5.420;2023-06-22T07:17:50;101974.53;;;26.10;56.31
72061;BME280;59925;52.136;5.420;2023-06-22T07:20:17;101971.63;;;25.78;56.89
72061;BME280;59925;52.136;5.420;2023-06-22T07:22:46;101972.13;;;25.55;58.08
72061;BME280;59925;52.136;5.420;2023-06-22T07:25:12;101969.63;;;25.50;57.80
72061;BME280;59925;52.136;5.420;2023-06-22T07:30:23;101972.94;;;25.44;58.01
72061;BME280;59925;52.136;5.420;2023-06-22T07:32:49;101974.28;;;25.37;57.91
72061;BME280;59925;52.136;5.420;2023-06-22T07:35:16;101981.06;;;25.52;59.53
72061;BME280;59925;52.136;5.420;2023-06-22T07:37:43;101969.50;;;25.59;58.73
72061;BME280;59925;52.136;5.420;2023-06-22T07:40:09;101966.97;;;25.66;57.66
72061;BME280;59925;52.136;5.420;2023-06-22T07:42:36;101962.03;;;25.72;58.88
72061;BME280;59925;52.136;5.420;2023-06-22T07:45:04;101964.84;;;25.88;57.63
72061;BME280;59925;52.136;5.420;2023-06-22T07:47:31;101951.84;;;25.73;57.59
72061;BME280;59925;52.136;5.420;2023-06-22T07:50:02;101951.53;;;25.62;58.13
72061;BME280;59925;52.136;5.420;2023-06-22T07:52:30;101941.69;;;25.61;58.70
72061;BME280;59925;52.136;5.420;2023-06-22T07:54:57;101943.88;;;25.55;57.51
72061;BME280;59925;52.136;5.420;2023-06-22T07:57:24;101941.03;;;25.51;58.33
72061;BME280;59925;52.136;5.420;2023-06-22T08:00:00;101945.03;;;25.54;57.50
72061;BME280;59925;52.136;5.420;2023-06-22T08:02:26;101943.84;;;25.67;57.86
72061;BME280;59925;52.136;5.420;2023-06-22T08:04:53;101936.72;;;25.79;56.40
72061;BME280;59925;52.136;5.420;2023-06-22T08:07:31;101936.13;;;25.85;57.71
72061;BME280;59925;52.136;5.420;2023-06-22T08:09:59;101929.66;;;26.06;57.39
72061;BME280;59925;52.136;5.420;2023-06-22T08:12:25;101929.19;;;26.16;56.39
72061;BME280;59925;52.136;5.420;2023-06-22T08:14:52;101923.16;;;26.27;55.94
72061;BME280;59925;52.136;5.420;2023-06-22T08:17:19;101922.94;;;26.32;56.02
72061;BME280;59925;52.136;5.420;2023-06-22T08:19:45;101916.91;;;26.42;55.87
72061;BME280;59925;52.136;5.420;2023-06-22T08:22:12;101913.09;;;26.63;55.83
72061;BME280;59925;52.136;5.420;2023-06-22T08:24:38;101915.84;;;26.63;54.97
72061;BME280;59925;52.136;5.420;2023-06-22T08:27:07;101908.97;;;26.85;55.52
72061;BME280;59925;52.136;5.420;2023-06-22T08:29:35;101906.47;;;26.80;53.77
72061;BME280;59925;52.136;5.420;2023-06-22T08:32:02;101892.16;;;26.74;54.58
72061;BME280;59925;52.136;5.420;2023-06-22T08:34:29;101891.63;;;26.69;53.54
72061;BME280;59925;52.136;5.420;2023-06-22T08:36:55;101886.31;;;26.76;54.10
72061;BME280;59925;52.136;5.420;2023-06-22T08:39:22;101885.72;;;26.83;54.23
72061;BME280;59925;52.136;5.420;2023-06-22T08:41:48;101885.09;;;26.89;53.84
72061;BME280;59925;52.136;5.420;2023-06-22T08:44:18;101888.41;;;26.79;51.57
72061;BME280;59925;52.136;5.420;2023-06-22T08:46:45;101880.28;;;26.70;51.27
72061;BME280;59925;52.136;5.420;2023-06-22T08:49:12;101868.16;;;26.71;51.06
72061;BME280;59925;52.136;5.420;2023-06-22T08:51:38;101880.38;;;26.90;53.58
72061;BME280;59925;52.136;5.420;2023-06-22T08:54:05;101868.31;;;27.30;52.38
72061;BME280;59925;52.136;5.420;2023-06-22T08:56:32;101874.97;;;27.65;50.88
72061;BME280;59925;52.136;5.420;2023-06-22T08:58:58;101867.78;;;27.80;50.06
72061;BME280;59925;52.136;5.420;2023-06-22T09:01:25;101870.75;;;28.10;49.19
72061;BME280;59925;52.136;5.420;2023-06-22T09:03:51;101870.88;;;28.18;48.50
72061;BME280;59925;52.136;5.420;2023-06-22T09:06:22;101865.94;;;28.07;47.41
72061;BME280;59925;52.136;5.420;2023-06-22T09:08:49;101862.09;;;28.12;48.30
72061;BME280;59925;52.136;5.420;2023-06-22T09:11:15;101862.91;;;27.93;47.87
72061;BME280;59925;52.136;5.420;2023-06-22T09:13:42;101861.97;;;28.05;48.78
72061;BME280;59925;52.136;5.420;2023-06-22T09:16:09;101870.09;;;28.17;48.35
72061;BME280;59925;52.136;5.420;2023-06-22T09:18:35;101872.22;;;28.27;47.72
72061;BME280;59925;52.136;5.420;2023-06-22T09:21:02;101858.25;;;28.40;45.59
72061;BME280;59925;52.136;5.420;2023-06-22T09:23:29;101859.97;;;28.48;47.27
72061;BME280;59925;52.136;5.420;2023-06-22T09:25:55;101860.44;;;28.54;46.36
72061;BME280;59925;52.136;5.420;2023-06-22T09:28:22;101854.63;;;28.59;47.54
72061;BME280;59925;52.136;5.420;2023-06-22T09:30:48;101866.78;;;28.78;46.39
72061;BME280;59925;52.136;5.420;2023-06-22T09:33:15;101860.75;;;28.99;47.20
72061;BME280;59925;52.136;5.420;2023-06-22T09:35:41;101866.91;;;29.42;45.84
72061;BME280;59925;52.136;5.420;2023-06-22T09:38:08;101870.88;;;29.79;44.95
72061;BME280;59925;52.136;5.420;2023-06-22T09:40:34;101863.34;;;29.76;44.58
72061;BME280;59925;52.136;5.420;2023-06-22T09:43:06;101861.28;;;29.69;43.23
72061;BME280;59925;52.136;5.420;2023-06-22T09:45:32;101860.81;;;29.97;43.06
72061;BME280;59925;52.136;5.420;2023-06-22T09:47:59;101859.63;;;29.95;42.94
72061;BME280;59925;52.136;5.420;2023-06-22T09:50:25;101860.59;;;29.79;42.28
72061;BME280;59925;52.136;5.420;2023-06-22T09:52:52;101853.69;;;29.59;44.14
72061;BME280;59925;52.136;5.420;2023-06-22T09:55:21;101849.47;;;29.38;44.75
72061;BME280;59925;52.136;5.420;2023-06-22T09:57:48;101850.00;;;29.17;44.36
72061;BME280;59925;52.136;5.420;2023-06-22T10:00:16;101850.31;;;29.12;44.65
72061;BME280;59925;52.136;5.420;2023-06-22T10:02:45;101851.69;;;28.98;45.54
72061;BME280;59925;52.136;5.420;2023-06-22T10:05:13;101855.16;;;28.92;45.20
72061;BME280;59925;52.136;5.420;2023-06-22T10:07:40;101846.09;;;28.68;44.79
72061;BME280;59925;52.136;5.420;2023-06-22T10:10:11;101852.75;;;28.40;45.60
72061;BME280;59925;52.136;5.420;2023-06-22T10:12:42;101859.16;;;28.24;45.41
72061;BME280;59925;52.136;5.420;2023-06-22T10:15:10;101853.41;;;28.10;45.80
72061;BME280;59925;52.136;5.420;2023-06-22T10:17:37;101852.38;;;27.98;45.89
72061;BME280;59925;52.136;5.420;2023-06-22T10:20:05;101844.50;;;27.77;46.30
72061;BME280;59925;52.136;5.420;2023-06-22T10:22:40;101837.34;;;27.73;45.43
72061;BME280;59925;52.136;5.420;2023-06-22T10:25:08;101844.72;;;27.68;46.71
72061;BME280;59925;52.136;5.420;2023-06-22T10:27:35;101842.84;;;27.53;46.70
72061;BME280;59925;52.136;5.420;2023-06-22T10:30:02;101838.94;;;27.54;46.76
72061;BME280;59925;52.136;5.420;2023-06-22T10:32:29;101845.59;;;27.53;47.34
72061;BME280;59925;52.136;5.420;2023-06-22T10:34:55;101847.84;;;27.47;45.70
72061;BME280;59925;52.136;5.420;2023-06-22T10:37:24;101842.53;;;27.38;47.20
72061;BME280;59925;52.136;5.420;2023-06-22T10:39:51;101852.59;;;27.31;45.80
72061;BME280;59925;52.136;5.420;2023-06-22T10:42:17;101852.50;;;27.07;47.53
72061;BME280;59925;52.136;5.420;2023-06-22T10:44:44;101852.25;;;26.97;46.92
72061;BME280;59925;52.136;5.420;2023-06-22T10:47:11;101857.28;;;26.95;47.56
72061;BME280;59925;52.136;5.420;2023-06-22T10:49:38;101850.13;;;26.90;47.44
72061;BME280;59925;52.136;5.420;2023-06-22T10:52:08;101853.44;;;26.80;47.55
72061;BME280;59925;52.136;5.420;2023-06-22T10:54:36;101850.13;;;26.90;47.38
72061;BME280;59925;52.136;5.420;2023-06-22T10:57:03;101849.97;;;26.83;48.29
72061;BME280;59925;52.136;5.420;2023-06-22T10:59:29;101852.72;;;26.83;49.21
72061;BME280;59925;52.136;5.420;2023-06-22T11:01:56;101849.97;;;26.83;48.78
72061;BME280;59925;52.136;5.420;2023-06-22T11:04:24;101850.19;;;26.77;49.36
72061;BME280;59925;52.136;5.420;2023-06-22T11:06:51;101848.38;;;26.82;48.63
72061;BME280;59925;52.136;5.420;2023-06-22T11:09:17;101845.25;;;26.99;49.01
72061;BME280;59925;52.136;5.420;2023-06-22T11:11:56;101845.13;;;27.12;48.87
72061;BME280;59925;52.136;5.420;2023-06-22T11:14:22;101839.19;;;27.29;49.91
72061;BME280;59925;52.136;5.420;2023-06-22T11:16:49;101836.22;;;27.38;49.93
72061;BME280;59925;52.136;5.420;2023-06-22T11:19:16;101835.84;;;27.39;48.45
72061;BME280;59925;52.136;5.420;2023-06-22T11:21:42;101836.22;;;27.38;48.92
72061;BME280;59925;52.136;5.420;2023-06-22T11:24:09;101832.47;;;27.46;49.57
72061;BME280;59925;52.136;5.420;2023-06-22T11:26:35;101829.50;;;27.55;49.66
72061;BME280;59925;52.136;5.420;2023-06-22T11:29:03;101833.09;;;27.56;49.35
72061;BME280;59925;52.136;5.420;2023-06-22T11:31:32;101829.66;;;27.62;50.29
72061;BME280;59925;52.136;5.420;2023-06-22T11:33:59;101821.75;;;27.61;50.50
72061;BME280;59925;52.136;5.420;2023-06-22T11:36:26;101820.97;;;27.60;51.25
72061;BME280;59925;52.136;5.420;2023-06-22T11:38:53;101814.25;;;27.58;50.20
72061;BME280;59925;52.136;5.420;2023-06-22T11:41:19;101813.09;;;27.59;50.04
72061;BME280;59925;52.136;5.420;2023-06-22T11:43:46;101804.28;;;27.53;50.75
72061;BME280;59925;52.136;5.420;2023-06-22T11:46:12;101808.31;;;27.39;50.43
72061;BME280;59925;52.136;5.420;2023-06-22T11:48:39;101795.53;;;27.47;50.84
72061;BME280;59925;52.136;5.420;2023-06-22T11:51:05;101792.88;;;27.51;52.26
72061;BME280;59925;52.136;5.420;2023-06-22T11:53:34;101796.25;;;27.64;51.67
72061;BME280;59925;52.136;5.420;2023-06-22T11:56:01;101797.47;;;27.66;50.41
72061;BME280;59925;52.136;5.420;2023-06-22T11:58:28;101797.56;;;27.70;50.73
72061;BME280;59925;52.136;5.420;2023-06-22T12:00:54;101785.38;;;27.71;50.71
72061;BME280;59925;52.136;5.420;2023-06-22T12:03:21;101794.06;;;27.73;50.72
72061;BME280;59925;52.136;5.420;2023-06-22T12:05:50;101791.44;;;27.80;50.83
72061;BME280;59925;52.136;5.420;2023-06-22T12:08:17;101790.56;;;27.76;51.12
72061;BME280;59925;52.136;5.420;2023-06-22T12:10:44;101789.56;;;27.84;51.43
72061;BME280;59925;52.136;5.420;2023-06-22T12:13:11;101781.16;;;27.77;50.51
72061;BME280;59925;52.136;5.420;2023-06-22T12:15:38;101783.34;;;27.68;51.19
72061;BME280;59925;52.136;5.420;2023-06-22T12:18:04;101783.19;;;27.61;51.57
72061;BME280;59925;52.136;5.420;2023-06-22T12:20:31;101788.59;;;27.53;50.83
72061;BME280;59925;52.136;5.420;2023-06-22T12:22:58;101778.22;;;27.47;51.53
72061;BME280;59925;52.136;5.420;2023-06-22T12:25:24;101782.19;;;27.30;51.62
72061;BME280;59925;52.136;5.420;2023-06-22T12:27:51;101782.84;;;27.23;52.39
72061;BME280;59925;52.136;5.420;2023-06-22T12:30:17;101780.50;;;27.05;53.26
72061;BME280;59925;52.136;5.420;2023-06-22T12:32:44;101779.63;;;27.01;53.12
72061;BME280;59925;52.136;5.420;2023-06-22T12:35:11;101769.75;;;26.81;54.79
72061;BME280;59925;52.136;5.420;2023-06-22T12:37:43;101765.88;;;26.66;56.32
72061;BME280;59925;52.136;5.420;2023-06-22T12:40:10;101772.97;;;26.51;55.71
72061;BME280;59925;52.136;5.420;2023-06-22T12:42:37;101777.69;;;26.34;55.70
72061;BME280;59925;52.136;5.420;2023-06-22T12:45:04;101773.53;;;26.40;56.06
72061;BME280;59925;52.136;5.420;2023-06-22T12:47:31;101769.78;;;26.33;56.81
72061;BME280;59925;52.136;5.420;2023-06-22T12:49:58;101775.13;;;26.25;55.72
72061;BME280;59925;52.136;5.420;2023-06-22T12:52:24;101767.66;;;26.10;55.41
72061;BME280;59925;52.136;5.420;2023-06-22T12:54:51;101764.63;;;25.99;56.40
72061;BME280;59925;52.136;5.420;2023-06-22T12:57:21;101753.34;;;25.88;56.34
72061;BME280;59925;52.136;5.420;2023-06-22T12:59:48;101757.88;;;25.80;55.42